EKHV weather

Haderslev Airport
Haderslev, South Denmark, Denmark

Public forecast

Using degrees Celsius for public forecast. Weather courtesy of forecast.io.

METAR (pilot weather report)

Closest report is Skrydstrup Air Base, 10.0 nm (18.5 km) WSW. Retrieved 2019/07/17 12:50 UTC (1 hour ago):

EKSP 171250Z 25004KT 190V310 9999 SCT032 21/12 Q1014 NOSIG

TAF (pilot weather forecast)

Closest forecast is Skrydstrup Air Base, 10.0 nm (18.5 km) WSW. Retrieved 2019/07/17 15:31 UTC (0 seconds ago):

TAF EKSP 171417Z 1715/1815 25008KT 9999 SCT018 BECMG 1723/1802 VRB03KT TEMPO 1800/1806 0500 BCFG BKN001 BECMG 1808/1810 16010KT